Airfield :
LOGIN :

Register | Disclaimer

   EN    FR    IT 

 










Legend :    VFR   Marginal VFR   IFR   Intensive IFR   Very Intensive IFR
Visi :
Ceiling :
>= 8 km
>= 3000ft
5 to 8 km
1000 to 3000 ft
1500m to 5 km
500 to 1000 ft
800 to 1500m
200 to 500 ft
< 800m
< 200 ft
Symbols :   Thunderstorms  Fog  Heavy snow  Heavy precipitations  Wind > 20 kt
SIGMETs :     Misc.  Thunderstorms  Icing  Turbulence  Mountain Waves  Volcanic Ashes







- Airport Elevation : 400 ft
- IATA code : BNX


LQBK - Banja Luka

CURRENT METAR :
  • 162100Z 16005KT CAVOK 01/M00 Q1031 NOSIG

EXPIRED METARs :
  • 162030Z 16006KT CAVOK 01/00 Q1031 NOSIG
  • 162000Z 16005KT CAVOK 01/00 Q1031 NOSIG
  • 161930Z 16002KT CAVOK 01/00 Q1031 NOSIG
  • 161900Z 11002KT CAVOK 01/00 Q1031 NOSIG
  • 161830Z 07002KT CAVOK 02/01 Q1031 NOSIG

TAF TAF LQBK
Valid from the 16 at 18:00 until the 17 at 18:00 UTC


161700Z 1618/1718 VRB02KT CAVOK TX13/1713Z TNM01/1706Z
PROB40
TEMPO 1704/1708 2500 BR
No reported NOTAMs for that airfield.



MET'MAP, your aeronautical weather chart ! - Copyright ORBIFLY December 2007 - Disclaimer

ORBIFLY MET'MAP TEAM :

Programming & Development : Alexandra Zaïnal
Concept & Development : Baudouin d'Aumeries
Co-Development & Prog : Marc-Olivier Méhu
Technical & hardware support : Manuel Goepfert

Contact : metmap@orbifly.com




SOURCES & CREDITS :

   NOAA